createdAt,value
2024-04-30T00:01:27.733Z,18.16
2024-04-30T00:03:54.340Z,18.10
2024-04-30T00:06:20.851Z,18.10
2024-04-30T00:08:47.402Z,18.10
2024-04-30T00:11:13.969Z,18.10
2024-04-30T00:13:40.457Z,18.10
2024-04-30T00:16:07.300Z,18.02
2024-04-30T00:18:33.847Z,18.00
2024-04-30T00:21:00.513Z,18.00
2024-04-30T00:23:26.982Z,18.00
2024-04-30T00:25:53.556Z,17.90
2024-04-30T00:28:20.129Z,17.90
2024-04-30T00:30:46.667Z,17.90
2024-04-30T00:33:13.220Z,17.80
2024-04-30T00:35:39.671Z,17.80
2024-04-30T00:38:06.129Z,17.80
2024-04-30T00:40:32.669Z,17.74
2024-04-30T00:42:59.309Z,17.70
2024-04-30T00:45:25.877Z,17.70
2024-04-30T00:47:52.467Z,17.70
2024-04-30T00:50:19.256Z,17.60
2024-04-30T00:52:46.194Z,17.60
2024-04-30T00:55:12.754Z,17.60
2024-04-30T00:57:39.305Z,17.60
2024-04-30T01:00:07.212Z,17.50
2024-04-30T01:02:33.759Z,17.50
2024-04-30T01:05:01.397Z,17.50
2024-04-30T01:07:28.378Z,17.44
2024-04-30T01:09:55.293Z,17.40
2024-04-30T01:12:23.208Z,17.40
2024-04-30T01:14:49.736Z,17.40
2024-04-30T01:17:16.220Z,17.40
2024-04-30T01:19:42.701Z,17.40
2024-04-30T01:22:09.192Z,17.40
2024-04-30T01:24:35.785Z,17.40
2024-04-30T01:27:04.250Z,17.40
2024-04-30T01:29:30.731Z,17.40
2024-04-30T01:31:57.458Z,17.32
2024-04-30T01:34:24.091Z,17.36
2024-04-30T01:36:50.603Z,17.38
2024-04-30T01:39:17.115Z,17.32
2024-04-30T01:41:44.193Z,17.40
2024-04-30T01:44:10.926Z,17.38
2024-04-30T01:46:37.433Z,17.30
2024-04-30T01:49:04.060Z,17.30
2024-04-30T01:51:30.574Z,17.30
2024-04-30T01:53:57.066Z,17.30
2024-04-30T01:56:23.633Z,17.30
2024-04-30T01:58:51.028Z,17.34
2024-04-30T02:01:18.113Z,17.30
2024-04-30T02:03:44.856Z,17.30
2024-04-30T02:06:11.471Z,17.30
2024-04-30T02:08:37.937Z,17.30
2024-04-30T02:11:04.602Z,17.20
2024-04-30T02:13:31.102Z,17.20
2024-04-30T02:15:57.586Z,17.12
2024-04-30T02:18:24.087Z,17.10
2024-04-30T02:20:50.598Z,17.10
2024-04-30T02:23:17.153Z,17.10
2024-04-30T02:25:43.616Z,17.02
2024-04-30T02:28:10.086Z,17.00
2024-04-30T02:30:59.835Z,17.00
2024-04-30T02:33:44.760Z,17.00
2024-04-30T02:36:14.136Z,16.96
2024-04-30T02:38:40.925Z,16.90
2024-04-30T02:41:10.387Z,16.90
2024-04-30T02:43:37.155Z,16.86
2024-04-30T02:46:03.876Z,16.80
2024-04-30T02:48:30.474Z,16.70
2024-04-30T02:50:57.112Z,16.68
2024-04-30T02:53:23.581Z,16.60
2024-04-30T02:55:50.260Z,16.60
2024-04-30T02:58:16.760Z,16.60
2024-04-30T03:00:43.290Z,16.50
2024-04-30T03:03:09.826Z,16.50
2024-04-30T03:05:36.298Z,16.40
2024-04-30T03:08:02.908Z,16.40
2024-04-30T03:10:29.433Z,16.30
2024-04-30T03:12:56.251Z,16.30
2024-04-30T03:15:22.747Z,16.30
2024-04-30T03:17:49.657Z,16.30
2024-04-30T03:20:19.874Z,16.20
2024-04-30T03:22:47.611Z,16.20
2024-04-30T03:25:14.874Z,16.10
2024-04-30T03:27:41.822Z,16.10
2024-04-30T03:30:09.294Z,16.04
2024-04-30T03:32:36.135Z,16.00
2024-04-30T03:35:02.926Z,16.00
2024-04-30T03:37:29.405Z,16.00
2024-04-30T03:39:55.895Z,16.00
2024-04-30T03:42:22.540Z,15.90
2024-04-30T03:44:52.441Z,15.86
2024-04-30T03:47:19.397Z,15.80
2024-04-30T03:49:46.106Z,15.80
2024-04-30T03:52:12.628Z,15.80
2024-04-30T03:54:39.143Z,15.70
2024-04-30T03:57:06.032Z,15.70
2024-04-30T03:59:32.596Z,15.70
2024-04-30T04:01:59.179Z,15.70
2024-04-30T04:04:25.794Z,15.70
2024-04-30T04:06:52.386Z,15.70
2024-04-30T04:09:21.954Z,15.70
2024-04-30T04:12:06.960Z,15.70
2024-04-30T04:14:49.882Z,15.68
2024-04-30T04:17:17.979Z,15.60
2024-04-30T04:19:45.651Z,15.60
2024-04-30T04:22:12.314Z,15.60
2024-04-30T04:24:38.846Z,15.62
2024-04-30T04:27:06.665Z,15.60
2024-04-30T04:29:34.282Z,15.60
2024-04-30T04:32:01.480Z,15.62
2024-04-30T04:34:28.452Z,15.70
2024-04-30T04:36:55.171Z,15.70
2024-04-30T04:39:21.817Z,15.62
2024-04-30T04:41:48.290Z,15.60
2024-04-30T04:44:14.794Z,15.62
2024-04-30T04:46:41.327Z,15.60
2024-04-30T04:49:08.273Z,15.60
2024-04-30T04:51:35.014Z,15.68
2024-04-30T04:54:01.761Z,15.70
2024-04-30T04:56:28.422Z,15.70
2024-04-30T04:58:54.957Z,15.70
2024-04-30T05:01:21.614Z,15.70
2024-04-30T05:03:48.274Z,15.70
2024-04-30T05:06:14.888Z,15.70
2024-04-30T05:08:44.980Z,15.80
2024-04-30T05:11:15.876Z,15.86
2024-04-30T05:13:42.500Z,15.90
2024-04-30T05:16:09.378Z,16.00
2024-04-30T05:18:36.963Z,16.10
2024-04-30T05:21:04.229Z,16.20
2024-04-30T05:23:30.750Z,16.30
2024-04-30T05:25:57.245Z,16.40
2024-04-30T05:28:24.040Z,16.60
2024-04-30T05:30:50.561Z,16.70
2024-04-30T05:33:17.258Z,16.90
2024-04-30T05:35:43.875Z,16.96
2024-04-30T05:38:10.289Z,17.10
2024-04-30T05:40:36.850Z,17.20
2024-04-30T05:43:09.166Z,17.40
2024-04-30T05:45:35.766Z,18.56
2024-04-30T05:48:02.401Z,20.28
2024-04-30T05:50:28.989Z,21.90
2024-04-30T05:52:55.677Z,23.48
2024-04-30T05:55:22.219Z,24.74
2024-04-30T05:57:48.798Z,25.84
2024-04-30T06:00:15.414Z,26.66
2024-04-30T06:02:41.904Z,27.32
2024-04-30T06:05:08.459Z,28.00
2024-04-30T06:07:35.134Z,28.62
2024-04-30T06:10:01.716Z,29.54
2024-04-30T06:12:28.239Z,30.28
2024-04-30T06:14:54.783Z,31.24
2024-04-30T06:17:21.360Z,31.98
2024-04-30T06:19:47.917Z,32.58
2024-04-30T06:22:14.677Z,33.20
2024-04-30T06:24:41.133Z,33.76
2024-04-30T06:27:07.770Z,34.22
2024-04-30T06:29:37.952Z,34.60
2024-04-30T06:32:07.789Z,34.96
2024-04-30T06:34:34.315Z,35.48
2024-04-30T06:37:00.880Z,35.90
2024-04-30T06:39:27.390Z,36.38
2024-04-30T06:41:53.840Z,36.70
2024-04-30T06:44:21.369Z,36.40
2024-04-30T06:46:47.853Z,36.50
2024-04-30T06:49:14.425Z,35.68
2024-04-30T06:51:41.332Z,34.14
2024-04-30T06:54:08.259Z,32.60
2024-04-30T06:56:34.712Z,31.66
2024-04-30T06:59:01.314Z,30.88
2024-04-30T07:01:27.878Z,30.20
2024-04-30T07:03:54.379Z,29.56
2024-04-30T07:06:20.842Z,29.12
2024-04-30T07:08:47.351Z,28.76
2024-04-30T07:11:13.847Z,28.30
2024-04-30T07:13:40.410Z,27.52
2024-04-30T07:16:07.136Z,26.90
2024-04-30T07:18:34.006Z,26.70
2024-04-30T07:21:01.869Z,26.40
2024-04-30T07:23:28.387Z,26.16
2024-04-30T07:25:54.901Z,26.02
2024-04-30T07:28:21.492Z,26.00
2024-04-30T07:30:48.058Z,25.90
2024-04-30T07:33:14.769Z,25.90
2024-04-30T07:35:42.102Z,26.00
2024-04-30T07:38:08.585Z,26.00
2024-04-30T07:40:35.132Z,27.08
2024-04-30T07:43:01.620Z,28.82
2024-04-30T07:45:28.207Z,30.26
2024-04-30T07:47:54.905Z,31.26
2024-04-30T07:50:21.573Z,32.16
2024-04-30T07:52:48.111Z,33.20
2024-04-30T07:55:14.765Z,33.90
2024-04-30T07:57:41.341Z,34.66
2024-04-30T08:00:11.758Z,35.66
2024-04-30T08:02:38.376Z,36.06
2024-04-30T08:05:05.209Z,36.20
2024-04-30T08:07:31.791Z,36.78
2024-04-30T08:09:58.360Z,37.00
2024-04-30T08:12:24.842Z,37.40
2024-04-30T08:14:51.344Z,37.98
2024-04-30T08:17:17.862Z,38.34
2024-04-30T08:19:44.361Z,38.14
2024-04-30T08:22:10.963Z,38.30
2024-04-30T08:24:37.457Z,38.60
2024-04-30T08:27:04.285Z,38.80
2024-04-30T08:29:30.838Z,39.10
2024-04-30T08:31:57.974Z,39.38
2024-04-30T08:34:24.537Z,39.18
2024-04-30T08:36:50.986Z,39.40
2024-04-30T08:39:17.618Z,39.60
2024-04-30T08:41:48.664Z,40.00
2024-04-30T08:44:16.342Z,40.10
2024-04-30T08:46:46.244Z,40.30
2024-04-30T08:49:20.394Z,40.50
2024-04-30T08:51:57.469Z,40.74
2024-04-30T08:54:26.680Z,41.00
2024-04-30T08:56:53.460Z,41.18
2024-04-30T08:59:19.939Z,41.20
2024-04-30T09:01:52.230Z,41.30
2024-04-30T09:04:19.125Z,41.30
2024-04-30T09:06:45.864Z,41.40
2024-04-30T09:09:16.708Z,41.00
2024-04-30T09:11:44.052Z,41.00
2024-04-30T09:14:11.162Z,41.10
2024-04-30T09:16:50.196Z,41.04
2024-04-30T09:19:27.500Z,40.60
2024-04-30T09:22:04.981Z,40.32
2024-04-30T09:24:31.723Z,39.90
2024-04-30T09:26:58.301Z,40.00
2024-04-30T09:29:36.559Z,40.10
2024-04-30T09:32:04.199Z,39.96
2024-04-30T09:34:41.794Z,39.80
2024-04-30T09:37:24.186Z,39.66
2024-04-30T09:39:53.656Z,39.60
2024-04-30T09:42:21.081Z,39.58
2024-04-30T09:44:50.833Z,39.64
2024-04-30T09:47:19.042Z,39.50
2024-04-30T09:49:46.431Z,39.26
2024-04-30T09:52:15.617Z,39.00
2024-04-30T09:54:44.202Z,38.54
2024-04-30T09:57:11.509Z,37.40
2024-04-30T09:59:38.047Z,37.04
2024-04-30T10:02:12.158Z,36.30
2024-04-30T10:04:39.506Z,36.02
2024-04-30T10:07:06.392Z,35.90
2024-04-30T10:09:33.005Z,35.66
2024-04-30T10:11:59.487Z,35.30
2024-04-30T10:14:30.231Z,34.54
2024-04-30T10:17:01.689Z,33.90
2024-04-30T10:19:29.051Z,33.26
2024-04-30T10:21:55.685Z,32.80
2024-04-30T10:24:23.350Z,32.60
2024-04-30T10:26:51.590Z,32.58
2024-04-30T10:29:18.569Z,32.50
2024-04-30T10:31:49.419Z,32.30
2024-04-30T10:34:16.501Z,32.30
2024-04-30T10:36:48.166Z,32.20
2024-04-30T10:39:25.924Z,32.10
2024-04-30T10:41:52.417Z,32.10
2024-04-30T10:44:18.998Z,32.20
2024-04-30T10:46:45.541Z,32.00
2024-04-30T10:49:13.012Z,31.90
2024-04-30T10:51:39.466Z,31.90
2024-04-30T10:54:06.191Z,31.80
2024-04-30T10:56:32.742Z,31.80
2024-04-30T10:59:01.020Z,31.78
2024-04-30T11:01:31.479Z,31.80
2024-04-30T11:04:12.550Z,31.70
2024-04-30T11:06:44.846Z,31.50
2024-04-30T11:09:13.327Z,31.60
2024-04-30T11:11:50.742Z,31.60
2024-04-30T11:14:19.412Z,31.46
2024-04-30T11:16:47.627Z,31.40
2024-04-30T11:19:14.903Z,31.30
2024-04-30T11:21:41.711Z,31.10
2024-04-30T11:24:10.198Z,30.78
2024-04-30T11:26:37.083Z,30.50
2024-04-30T11:29:16.284Z,30.60
2024-04-30T11:31:50.035Z,30.70
2024-04-30T11:34:16.755Z,30.70
2024-04-30T11:36:43.317Z,30.70
2024-04-30T11:39:13.732Z,30.58
2024-04-30T11:41:43.566Z,30.50
2024-04-30T11:44:14.825Z,30.50
2024-04-30T11:46:41.304Z,30.40
2024-04-30T11:49:07.910Z,30.30
2024-04-30T11:51:34.395Z,30.20
2024-04-30T11:54:00.859Z,30.18
2024-04-30T11:56:30.445Z,30.30
2024-04-30T11:58:57.346Z,30.30
2024-04-30T12:01:23.961Z,30.20
2024-04-30T12:03:50.802Z,30.20
2024-04-30T12:06:17.428Z,30.30
2024-04-30T12:08:44.005Z,30.40
2024-04-30T12:11:10.662Z,30.56
2024-04-30T12:13:39.921Z,30.70
2024-04-30T12:16:06.771Z,30.70
2024-04-30T12:18:33.346Z,30.60
2024-04-30T12:20:59.899Z,30.40
2024-04-30T12:23:26.412Z,30.36
2024-04-30T12:25:52.943Z,30.30
2024-04-30T12:28:20.970Z,30.30
2024-04-30T12:30:47.591Z,30.30
2024-04-30T12:33:14.645Z,30.18
2024-04-30T12:35:41.319Z,30.00
2024-04-30T12:38:08.011Z,30.00
2024-04-30T12:40:34.511Z,29.90
2024-04-30T12:43:01.027Z,30.00
2024-04-30T12:45:27.526Z,30.10
2024-04-30T12:47:54.117Z,30.10
2024-04-30T12:50:20.649Z,30.00
2024-04-30T12:52:47.475Z,30.10
2024-04-30T12:55:13.996Z,30.10
2024-04-30T12:57:40.526Z,30.12
2024-04-30T13:00:07.788Z,30.20
2024-04-30T13:02:34.335Z,30.30
2024-04-30T13:05:00.938Z,30.24
2024-04-30T13:07:27.704Z,30.12
2024-04-30T13:09:54.173Z,30.10
2024-04-30T13:12:20.678Z,30.20
2024-04-30T13:14:47.127Z,30.10
2024-04-30T13:17:13.623Z,29.98
2024-04-30T13:19:40.122Z,29.90
2024-04-30T13:22:06.707Z,29.92
2024-04-30T13:24:33.283Z,30.00
2024-04-30T13:26:59.876Z,30.00
2024-04-30T13:29:26.383Z,29.80
2024-04-30T13:31:54.701Z,29.88
2024-04-30T13:34:21.183Z,29.98
2024-04-30T13:36:47.710Z,30.00
2024-04-30T13:39:16.878Z,30.10
2024-04-30T13:41:43.399Z,30.20
2024-04-30T13:44:09.915Z,30.30
2024-04-30T13:46:36.472Z,30.30
2024-04-30T13:49:02.943Z,30.30
2024-04-30T13:51:29.468Z,30.30
2024-04-30T13:53:55.892Z,30.20
2024-04-30T13:56:22.390Z,30.10
2024-04-30T13:58:48.946Z,29.90
2024-04-30T14:01:16.919Z,29.90
2024-04-30T14:03:44.311Z,29.90
2024-04-30T14:06:12.717Z,29.90
2024-04-30T14:08:39.183Z,29.90
2024-04-30T14:11:06.138Z,29.70
2024-04-30T14:13:33.981Z,29.60
2024-04-30T14:16:01.085Z,29.60
2024-04-30T14:18:27.617Z,29.80
2024-04-30T14:20:54.141Z,29.90
2024-04-30T14:23:20.699Z,30.00
2024-04-30T14:25:47.215Z,29.90
2024-04-30T14:28:13.806Z,29.90
2024-04-30T14:30:40.296Z,29.70
2024-04-30T14:33:07.008Z,29.60
2024-04-30T14:35:53.503Z,29.50
2024-04-30T14:38:19.999Z,29.74
2024-04-30T14:40:47.647Z,30.00
2024-04-30T14:43:14.259Z,30.14
2024-04-30T14:45:40.751Z,30.24
2024-04-30T14:48:07.991Z,30.34
2024-04-30T14:50:34.623Z,30.40
2024-04-30T14:53:01.234Z,30.50
2024-04-30T14:55:27.693Z,30.50
2024-04-30T14:57:54.249Z,30.50
2024-04-30T15:00:20.778Z,30.50
2024-04-30T15:02:47.275Z,30.50
2024-04-30T15:05:13.959Z,30.40
2024-04-30T15:07:40.714Z,30.36
2024-04-30T15:10:07.753Z,30.20
2024-04-30T15:12:34.232Z,30.20
2024-04-30T15:15:00.733Z,30.10
2024-04-30T15:17:27.359Z,30.10
2024-04-30T15:19:53.940Z,30.00
2024-04-30T15:22:20.460Z,29.90
2024-04-30T15:24:47.058Z,29.90
2024-04-30T15:27:14.331Z,29.90
2024-04-30T15:29:40.864Z,29.80
2024-04-30T15:32:07.340Z,29.70
2024-04-30T15:34:34.348Z,29.60
2024-04-30T15:37:00.864Z,29.52
2024-04-30T15:39:27.423Z,29.42
2024-04-30T15:41:55.129Z,29.38
2024-04-30T15:44:21.707Z,29.22
2024-04-30T15:46:48.316Z,29.14
2024-04-30T15:49:15.424Z,29.00
2024-04-30T15:51:42.455Z,28.90
2024-04-30T15:54:13.627Z,28.80
2024-04-30T15:56:46.633Z,28.70
2024-04-30T15:59:20.525Z,28.60
2024-04-30T16:01:47.121Z,28.60
2024-04-30T16:04:14.505Z,28.58
2024-04-30T16:06:42.649Z,28.50
2024-04-30T16:09:09.159Z,28.40
2024-04-30T16:11:35.762Z,28.30
2024-04-30T16:14:02.348Z,28.20
2024-04-30T16:16:28.951Z,28.10
2024-04-30T16:18:55.478Z,28.02
2024-04-30T16:21:23.519Z,28.00
2024-04-30T16:23:49.974Z,27.90
2024-04-30T16:26:16.482Z,27.80
2024-04-30T16:28:43.918Z,27.70
2024-04-30T16:31:11.418Z,27.70
2024-04-30T16:33:38.256Z,27.60
2024-04-30T16:36:05.702Z,27.50
2024-04-30T16:38:32.391Z,27.40
2024-04-30T16:40:58.861Z,27.30
2024-04-30T16:43:25.325Z,27.30
2024-04-30T16:45:51.941Z,27.20
2024-04-30T16:48:18.630Z,27.20
2024-04-30T16:50:45.283Z,27.10
2024-04-30T16:53:11.955Z,27.00
2024-04-30T16:55:38.402Z,27.00
2024-04-30T16:58:05.419Z,27.00
2024-04-30T17:00:32.117Z,26.90
2024-04-30T17:02:59.790Z,26.90
2024-04-30T17:05:27.094Z,26.90
2024-04-30T17:07:53.705Z,26.80
2024-04-30T17:10:20.374Z,26.80
2024-04-30T17:12:48.951Z,26.70
2024-04-30T17:15:15.562Z,26.70
2024-04-30T17:17:42.148Z,26.60
2024-04-30T17:20:08.857Z,26.60
2024-04-30T17:22:37.288Z,26.50
2024-04-30T17:25:04.298Z,26.46
2024-04-30T17:27:30.979Z,26.40
2024-04-30T17:29:57.563Z,26.30
2024-04-30T17:32:24.252Z,26.30
2024-04-30T17:34:51.027Z,26.20
2024-04-30T17:37:17.969Z,26.18
2024-04-30T17:39:44.525Z,26.10
2024-04-30T17:42:11.161Z,26.00
2024-04-30T17:44:38.317Z,26.00
2024-04-30T17:47:06.359Z,25.90
2024-04-30T17:49:33.023Z,25.80
2024-04-30T17:51:59.516Z,25.80
2024-04-30T17:54:26.107Z,25.70
2024-04-30T17:56:52.839Z,25.60
2024-04-30T17:59:20.541Z,25.50
2024-04-30T18:01:48.594Z,25.48
2024-04-30T18:04:15.320Z,25.36
2024-04-30T18:06:41.967Z,25.26
2024-04-30T18:09:08.583Z,25.20
2024-04-30T18:11:35.126Z,25.10
2024-04-30T18:14:02.921Z,25.00
2024-04-30T18:16:29.514Z,24.90
2024-04-30T18:19:49.051Z,24.90
2024-04-30T18:22:30.837Z,24.76
2024-04-30T18:24:57.314Z,24.70
2024-04-30T18:27:23.926Z,24.60
2024-04-30T18:29:50.524Z,24.50
2024-04-30T18:32:17.050Z,24.40
2024-04-30T18:34:44.279Z,24.30
2024-04-30T18:37:11.296Z,24.20
2024-04-30T18:39:41.081Z,24.12
2024-04-30T18:42:07.628Z,24.10
2024-04-30T18:44:35.281Z,24.00
2024-04-30T18:47:01.846Z,23.92
2024-04-30T18:49:28.495Z,23.90
2024-04-30T18:51:55.503Z,23.80
2024-04-30T18:54:21.939Z,23.80
2024-04-30T18:56:51.020Z,23.70
2024-04-30T18:59:19.255Z,23.60
2024-04-30T19:01:48.810Z,23.58
2024-04-30T19:04:15.443Z,23.50
2024-04-30T19:06:42.417Z,23.42
2024-04-30T19:09:09.057Z,23.40
2024-04-30T19:11:35.583Z,23.32
2024-04-30T19:14:02.166Z,23.30
2024-04-30T19:16:28.640Z,23.20
2024-04-30T19:18:55.208Z,23.18
2024-04-30T19:21:21.753Z,23.10
2024-04-30T19:23:48.265Z,23.00
2024-04-30T19:26:14.978Z,23.00
2024-04-30T19:28:41.385Z,22.90
2024-04-30T19:31:19.655Z,22.90
2024-04-30T19:33:47.291Z,22.80
2024-04-30T19:36:19.591Z,22.80
2024-04-30T19:38:47.019Z,22.70
2024-04-30T19:41:14.671Z,22.60
2024-04-30T19:43:41.269Z,22.52
2024-04-30T19:46:21.043Z,22.50
2024-04-30T19:48:51.348Z,22.40
2024-04-30T19:51:21.871Z,22.40
2024-04-30T19:53:49.610Z,22.30
2024-04-30T19:56:23.084Z,22.30
2024-04-30T19:58:55.640Z,22.20
2024-04-30T20:01:25.922Z,22.12
2024-04-30T20:03:52.572Z,22.10
2024-04-30T20:06:19.819Z,22.00
2024-04-30T20:08:46.468Z,22.00
2024-04-30T20:11:20.624Z,21.90
2024-04-30T20:13:47.971Z,21.90
2024-04-30T20:16:16.007Z,21.80
2024-04-30T20:18:44.342Z,21.80
2024-04-30T20:21:14.815Z,21.70
2024-04-30T20:23:42.372Z,21.60
2024-04-30T20:26:11.246Z,21.60
2024-04-30T20:28:38.051Z,21.50
2024-04-30T20:31:05.656Z,21.48
2024-04-30T20:33:35.791Z,21.40
2024-04-30T20:36:02.320Z,21.32
2024-04-30T20:38:30.023Z,21.30
2024-04-30T20:40:56.491Z,21.20
2024-04-30T20:43:22.978Z,21.20
2024-04-30T20:45:49.922Z,21.10
2024-04-30T20:48:17.437Z,21.10
2024-04-30T20:50:44.302Z,21.00
2024-04-30T20:53:10.753Z,21.00
2024-04-30T20:55:37.191Z,20.90
2024-04-30T20:58:03.915Z,20.90
2024-04-30T21:00:30.402Z,20.80
2024-04-30T21:02:56.969Z,20.80
2024-04-30T21:05:23.472Z,20.70
2024-04-30T21:07:49.925Z,20.70
2024-04-30T21:10:16.403Z,20.70
2024-04-30T21:12:42.916Z,20.60
2024-04-30T21:15:09.386Z,20.60
2024-04-30T21:17:36.336Z,20.60
2024-04-30T21:20:03.935Z,20.60
2024-04-30T21:22:32.359Z,20.58
2024-04-30T21:24:59.735Z,20.50
2024-04-30T21:27:26.866Z,20.50
2024-04-30T21:29:53.583Z,20.40
2024-04-30T21:32:20.091Z,20.40
2024-04-30T21:34:48.795Z,20.30
2024-04-30T21:37:15.622Z,20.30
2024-04-30T21:39:44.215Z,20.20
2024-04-30T21:42:10.814Z,20.18
2024-04-30T21:44:37.282Z,20.10
2024-04-30T21:47:04.143Z,20.10
2024-04-30T21:49:30.762Z,20.00
2024-04-30T21:51:57.334Z,20.00
2024-04-30T21:54:23.857Z,19.90
2024-04-30T21:56:50.281Z,19.90
2024-04-30T21:59:16.766Z,19.80
2024-04-30T22:01:49.310Z,19.80
2024-04-30T22:04:15.994Z,19.80
2024-04-30T22:06:42.708Z,19.80
2024-04-30T22:09:09.259Z,19.70
2024-04-30T22:11:35.756Z,19.70
2024-04-30T22:14:02.231Z,19.60
2024-04-30T22:16:28.778Z,19.60
2024-04-30T22:18:55.487Z,19.60
2024-04-30T22:21:24.478Z,19.50
2024-04-30T22:23:51.958Z,19.50
2024-04-30T22:26:18.424Z,19.40
2024-04-30T22:28:44.964Z,19.40
2024-04-30T22:31:11.467Z,19.30
2024-04-30T22:33:38.173Z,19.30
2024-04-30T22:36:05.675Z,19.28
2024-04-30T22:38:32.424Z,19.20
2024-04-30T22:40:58.865Z,19.20
2024-04-30T22:43:25.482Z,19.10
2024-04-30T22:45:52.624Z,19.10
2024-04-30T22:48:19.396Z,19.00
2024-04-30T22:50:45.972Z,19.00
2024-04-30T22:53:12.515Z,18.90
2024-04-30T22:55:39.007Z,18.90
2024-04-30T22:58:05.543Z,18.90
2024-04-30T23:00:32.163Z,18.80
2024-04-30T23:02:58.731Z,18.80
2024-04-30T23:05:25.275Z,18.80
2024-04-30T23:07:51.744Z,18.70
2024-04-30T23:10:18.354Z,18.70
2024-04-30T23:12:44.846Z,18.70
2024-04-30T23:15:11.321Z,18.66
2024-04-30T23:17:38.034Z,18.60
2024-04-30T23:20:05.177Z,18.60
2024-04-30T23:22:31.638Z,18.58
2024-04-30T23:24:58.116Z,18.50
2024-04-30T23:27:24.715Z,18.50
2024-04-30T23:29:51.226Z,18.50
2024-04-30T23:32:17.845Z,18.40
2024-04-30T23:34:44.578Z,18.40
2024-04-30T23:37:11.142Z,18.34
2024-04-30T23:39:37.712Z,18.30
2024-04-30T23:42:06.359Z,18.30
2024-04-30T23:44:34.969Z,18.20
2024-04-30T23:47:01.542Z,18.20
2024-04-30T23:49:28.027Z,18.20
2024-04-30T23:51:54.579Z,18.10
2024-04-30T23:54:21.092Z,18.10
2024-04-30T23:56:47.513Z,18.10
2024-04-30T23:59:13.940Z,18.02
